Time;durP1;ratioP1;P1;durP2;ratioP2;P2;SDS_P1;SDS_P2;PMS_P1;PMS_P2;Temp;Humidity;BMP_temperature;BMP_pressure;BME280_temperature;BME280_humidity;BME280_pressure;Samples;Min_cycle;Max_cycle;Signal;HPM_P1;HPM_P2
2023/10/24 00:02:00;;;;;;;4.68;4.00;;;;;;;;;;5032935;28;20056;-84
2023/10/24 00:04:27;;;;;;;4.80;3.92;;;;;;;;;;5013969;28;20044;-84
2023/10/24 00:06:57;;;;;;;5.38;4.55;;;;;;;;;;5030617;28;20060;-83
2023/10/24 00:09:24;;;;;;;6.93;4.63;;;;;;;;;;5032163;28;20041;-83
2023/10/24 00:11:53;;;;;;;6.45;5.78;;;;;;;;;;5015125;28;20438;-83
2023/10/24 00:14:21;;;;;;;4.60;4.05;;;;;;;;;;5012773;28;20056;-83
2023/10/24 00:16:48;;;;;;;4.93;4.45;;;;;;;;;;5014178;28;20048;-83
2023/10/24 00:19:18;;;;;;;5.60;3.95;;;;;;;;;;5030849;28;20049;-83
2023/10/24 00:21:45;;;;;;;7.95;4.35;;;;;;;;;;5014548;28;20049;-84
2023/10/24 00:24:14;;;;;;;4.35;3.95;;;;;;;;;;5015019;28;20079;-84
2023/10/24 00:26:41;;;;;;;7.00;4.28;;;;;;;;;;5050813;28;20052;-84
2023/10/24 00:29:15;;;;;;;4.80;4.40;;;;;;;;;;5011259;28;20050;-84
2023/10/24 00:31:44;;;;;;;5.55;3.67;;;;;;;;;;5014968;28;20068;-84
2023/10/24 00:34:12;;;;;;;3.78;3.42;;;;;;;;;;5032583;28;20064;-84
2023/10/24 00:36:40;;;;;;;5.78;4.57;;;;;;;;;;5012993;28;20391;-84
2023/10/24 00:39:09;;;;;;;4.30;3.90;;;;;;;;;;5010562;28;20414;-84
2023/10/24 00:41:41;;;;;;;6.72;4.28;;;;;;;;;;5029367;28;20128;-84
2023/10/24 00:44:11;;;;;;;5.20;4.70;;;;;;;;;;5015095;28;20526;-84
2023/10/24 00:46:42;;;;;;;6.05;5.20;;;;;;;;;;5014550;28;20064;-84
2023/10/24 00:49:10;;;;;;;5.47;4.63;;;;;;;;;;5010520;28;20056;-84
2023/10/24 00:51:37;;;;;;;10.40;4.63;;;;;;;;;;5030366;28;20071;-84
2023/10/24 00:54:05;;;;;;;5.00;4.00;;;;;;;;;;5014285;28;20059;-84
2023/10/24 00:56:34;;;;;;;6.30;4.53;;;;;;;;;;5019095;28;20045;-84
2023/10/24 00:59:07;;;;;;;7.63;3.55;;;;;;;;;;5014480;28;20422;-84
2023/10/24 01:01:34;;;;;;;4.18;3.70;;;;;;;;;;5016597;28;20041;-84
2023/10/24 01:04:03;;;;;;;4.38;3.97;;;;;;;;;;5035136;28;20061;-84
2023/10/24 01:06:33;;;;;;;4.60;3.80;;;;;;;;;;5034006;28;20041;-84
2023/10/24 01:09:01;;;;;;;7.10;4.88;;;;;;;;;;5018029;28;20057;-84
2023/10/24 01:11:31;;;;;;;4.35;4.00;;;;;;;;;;5018653;28;20041;-84
2023/10/24 01:14:02;;;;;;;6.55;4.70;;;;;;;;;;5048513;23;20515;-86
2023/10/24 01:16:42;;;;;;;8.48;5.63;;;;;;;;;;5013298;28;20053;-86
2023/10/24 01:19:13;;;;;;;4.80;4.38;;;;;;;;;;5034859;28;20054;-83
2023/10/24 01:21:45;;;;;;;4.85;4.40;;;;;;;;;;5017597;28;20060;-83
2023/10/24 01:24:13;;;;;;;4.65;3.72;;;;;;;;;;5027472;28;20080;-83
2023/10/24 01:26:41;;;;;;;5.18;3.95;;;;;;;;;;5028493;28;20046;-83
2023/10/24 01:29:09;;;;;;;4.88;4.30;;;;;;;;;;5018794;28;20052;-83
2023/10/24 01:31:36;;;;;;;3.78;3.35;;;;;;;;;;5052175;28;20042;-83
2023/10/24 01:34:04;;;;;;;4.72;3.65;;;;;;;;;;5014356;28;20064;-82
2023/10/24 01:36:31;;;;;;;5.47;4.72;;;;;;;;;;5018066;28;20065;-82
2023/10/24 01:39:00;;;;;;;8.50;6.15;;;;;;;;;;5032986;28;20076;-83
2023/10/24 01:41:27;;;;;;;5.40;4.60;;;;;;;;;;5019448;28;20072;-83
2023/10/24 01:43:57;;;;;;;5.55;4.22;;;;;;;;;;5021610;28;20065;-83
2023/10/24 01:46:25;;;;;;;4.57;4.13;;;;;;;;;;5005836;28;20053;-83
2023/10/24 01:48:52;;;;;;;5.95;4.55;;;;;;;;;;5027586;28;20053;-83
2023/10/24 01:51:20;;;;;;;7.15;6.35;;;;;;;;;;5031799;28;20049;-83
2023/10/24 01:53:47;;;;;;;5.53;4.57;;;;;;;;;;5019899;28;20050;-83
2023/10/24 01:56:16;;;;;;;5.95;5.43;;;;;;;;;;5016982;28;20060;-83
2023/10/24 01:58:43;;;;;;;5.65;5.13;;;;;;;;;;5009394;28;20057;-83
2023/10/24 02:01:11;;;;;;;5.57;4.65;;;;;;;;;;5033779;28;20033;-83
2023/10/24 02:03:38;;;;;;;7.25;5.00;;;;;;;;;;5026144;28;20052;-81
2023/10/24 02:06:05;;;;;;;6.30;5.22;;;;;;;;;;5006024;28;20049;-82
2023/10/24 02:08:33;;;;;;;8.18;6.22;;;;;;;;;;5021748;28;20049;-82
2023/10/24 02:11:01;;;;;;;9.57;6.72;;;;;;;;;;5014296;28;20041;-82
2023/10/24 02:13:30;;;;;;;8.40;6.00;;;;;;;;;;5005441;28;20045;-82
2023/10/24 02:15:57;;;;;;;13.50;5.65;;;;;;;;;;5022359;28;20049;-82
2023/10/24 02:18:24;;;;;;;7.25;5.07;;;;;;;;;;5004467;28;20072;-82
2023/10/24 02:20:51;;;;;;;6.18;5.50;;;;;;;;;;5011041;28;20050;-83
2023/10/24 02:23:19;;;;;;;7.82;5.85;;;;;;;;;;5018973;28;20053;-83
2023/10/24 02:25:46;;;;;;;9.85;6.78;;;;;;;;;;5016627;28;20053;-83
2023/10/24 02:28:14;;;;;;;7.68;6.88;;;;;;;;;;5013114;28;20054;-83
2023/10/24 02:30:42;;;;;;;7.95;5.75;;;;;;;;;;5030219;28;20526;-83
2023/10/24 02:33:10;;;;;;;6.68;6.07;;;;;;;;;;5034442;28;20410;-83
2023/10/24 02:35:37;;;;;;;7.47;6.43;;;;;;;;;;5029171;28;20052;-83
2023/10/24 02:38:06;;;;;;;7.90;6.68;;;;;;;;;;5019082;28;20046;-83
2023/10/24 02:40:33;;;;;;;5.68;5.18;;;;;;;;;;5017344;28;20052;-83
2023/10/24 02:43:01;;;;;;;7.28;5.40;;;;;;;;;;5016030;28;20049;-83
2023/10/24 02:45:28;;;;;;;8.02;6.22;;;;;;;;;;5007496;28;20060;-84
2023/10/24 02:47:57;;;;;;;7.68;6.82;;;;;;;;;;5011346;28;20065;-83
2023/10/24 02:50:23;;;;;;;6.60;5.95;;;;;;;;;;5035117;28;20057;-83
2023/10/24 02:52:51;;;;;;;5.35;4.85;;;;;;;;;;5014152;28;20049;-83
2023/10/24 02:55:19;;;;;;;4.93;4.45;;;;;;;;;;5034404;28;20049;-83
2023/10/24 02:57:46;;;;;;;6.43;5.13;;;;;;;;;;5012684;28;20068;-83
2023/10/24 03:00:14;;;;;;;6.53;4.65;;;;;;;;;;5003185;28;20076;-83
2023/10/24 03:02:41;;;;;;;5.53;4.47;;;;;;;;;;5005417;28;20159;-83
2023/10/24 03:05:10;;;;;;;5.97;5.38;;;;;;;;;;5014812;28;20045;-83
2023/10/24 03:07:38;;;;;;;9.20;5.32;;;;;;;;;;5031294;28;20045;-83
2023/10/24 03:10:06;;;;;;;7.07;6.38;;;;;;;;;;5012403;28;20053;-83
2023/10/24 03:12:33;;;;;;;7.28;6.57;;;;;;;;;;5009574;28;20045;-83
2023/10/24 03:15:01;;;;;;;7.47;6.18;;;;;;;;;;5012733;28;20053;-83
2023/10/24 03:17:29;;;;;;;10.15;6.70;;;;;;;;;;5032003;28;20443;-83
2023/10/24 03:19:56;;;;;;;8.82;6.10;;;;;;;;;;5027677;28;20491;-83
2023/10/24 03:23:04;;;;;;;6.50;5.85;;;;;;;;;;5114791;27;20425;-82
2023/10/24 03:25:32;;;;;;;6.90;6.07;;;;;;;;;;5059267;28;20056;-81
2023/10/24 03:27:59;;;;;;;5.57;4.45;;;;;;;;;;5060094;28;20052;-81
2023/10/24 03:30:28;;;;;;;9.77;6.03;;;;;;;;;;5064540;28;20076;-81
2023/10/24 03:32:55;;;;;;;7.65;5.88;;;;;;;;;;5037259;28;20052;-81
2023/10/24 03:35:23;;;;;;;7.38;5.25;;;;;;;;;;5061893;28;20433;-81
2023/10/24 03:37:50;;;;;;;8.18;6.03;;;;;;;;;;5064613;28;20401;-81
2023/10/24 03:40:23;;;;;;;7.45;6.70;;;;;;;;;;5072420;28;20049;-82
2023/10/24 03:42:53;;;;;;;6.35;5.75;;;;;;;;;;5062299;28;20048;-81
2023/10/24 03:45:25;;;;;;;6.78;5.90;;;;;;;;;;5038977;28;20064;-81
2023/10/24 03:47:52;;;;;;;7.82;6.07;;;;;;;;;;5061819;28;20052;-81
2023/10/24 03:50:20;;;;;;;7.05;5.70;;;;;;;;;;5045374;28;20048;-81
2023/10/24 03:52:49;;;;;;;6.68;5.93;;;;;;;;;;5063286;28;20045;-82
2023/10/24 03:55:16;;;;;;;5.90;4.55;;;;;;;;;;5046608;28;20059;-81
2023/10/24 03:57:45;;;;;;;5.38;4.80;;;;;;;;;;5043145;28;20060;-82
2023/10/24 04:00:13;;;;;;;6.50;5.95;;;;;;;;;;5044533;28;20060;-82
2023/10/24 04:02:43;;;;;;;7.35;4.85;;;;;;;;;;5059237;28;20045;-82
2023/10/24 04:05:12;;;;;;;12.10;7.50;;;;;;;;;;5047032;28;20049;-82
2023/10/24 04:07:42;;;;;;;11.05;6.57;;;;;;;;;;5063448;28;20131;-82
2023/10/24 04:10:12;;;;;;;8.38;6.38;;;;;;;;;;5070421;28;20060;-82
2023/10/24 04:12:43;;;;;;;5.97;5.47;;;;;;;;;;5064484;28;20064;-82
2023/10/24 04:15:11;;;;;;;7.13;6.40;;;;;;;;;;5066041;28;20045;-82
2023/10/24 04:17:43;;;;;;;6.22;5.55;;;;;;;;;;5060675;28;20045;-82
2023/10/24 04:20:13;;;;;;;8.48;6.93;;;;;;;;;;5055513;28;20544;-82
2023/10/24 04:22:42;;;;;;;7.47;6.78;;;;;;;;;;5058368;28;20049;-82
2023/10/24 04:25:12;;;;;;;7.72;6.25;;;;;;;;;;5041213;28;20060;-81
2023/10/24 04:27:41;;;;;;;7.57;6.78;;;;;;;;;;5042594;28;20068;-81
2023/10/24 04:30:15;;;;;;;8.73;6.57;;;;;;;;;;5064731;28;20050;-81
2023/10/24 04:32:44;;;;;;;8.35;5.80;;;;;;;;;;5037539;28;20053;-81
2023/10/24 04:35:12;;;;;;;7.45;6.72;;;;;;;;;;5026713;28;20044;-81
2023/10/24 04:37:42;;;;;;;6.70;6.10;;;;;;;;;;5043224;28;20052;-81
2023/10/24 04:40:11;;;;;;;8.07;7.28;;;;;;;;;;5046029;28;20053;-81
2023/10/24 04:42:40;;;;;;;8.07;6.82;;;;;;;;;;5025461;28;20523;-82
2023/10/24 04:45:10;;;;;;;7.47;6.60;;;;;;;;;;5046753;28;20045;-82
2023/10/24 04:47:41;;;;;;;8.02;5.68;;;;;;;;;;5058364;28;20045;-82
2023/10/24 04:50:08;;;;;;;6.70;5.72;;;;;;;;;;5035987;28;20442;-82
2023/10/24 04:52:38;;;;;;;6.10;5.50;;;;;;;;;;5036883;28;20049;-82
2023/10/24 04:55:08;;;;;;;7.03;5.47;;;;;;;;;;5034696;28;20051;-82
2023/10/24 04:57:35;;;;;;;6.90;6.07;;;;;;;;;;5062108;28;20059;-82
2023/10/24 05:00:06;;;;;;;7.65;6.10;;;;;;;;;;5051210;28;20414;-82
2023/10/24 05:02:36;;;;;;;10.60;6.55;;;;;;;;;;5041824;28;20045;-81
2023/10/24 05:05:08;;;;;;;6.03;5.53;;;;;;;;;;5036123;28;20053;-81
2023/10/24 05:07:35;;;;;;;8.40;5.57;;;;;;;;;;5051346;28;20049;-81
2023/10/24 05:10:03;;;;;;;8.05;7.25;;;;;;;;;;5048720;28;20064;-81
2023/10/24 05:12:30;;;;;;;8.63;6.50;;;;;;;;;;5057157;28;20045;-82
2023/10/24 05:15:00;;;;;;;6.60;5.97;;;;;;;;;;5053854;28;20037;-81
2023/10/24 05:17:30;;;;;;;8.32;7.03;;;;;;;;;;5044277;28;20045;-81
2023/10/24 05:20:01;;;;;;;9.70;7.93;;;;;;;;;;5051746;28;20060;-82
2023/10/24 05:22:30;;;;;;;10.48;7.53;;;;;;;;;;5030689;28;20048;-82
2023/10/24 05:25:01;;;;;;;;;;;;;;;;;;5035635;28;20048;-82
2023/10/24 05:27:32;;;;;;;9.13;8.10;;;;;;;;;;5035749;28;19925;-82
2023/10/24 05:30:04;;;;;;;10.25;8.07;;;;;;;;;;5051326;28;20057;-82
2023/10/24 05:32:35;;;;;;;9.35;8.15;;;;;;;;;;5045412;28;20067;-82
2023/10/24 05:35:02;;;;;;;9.02;8.13;;;;;;;;;;5050771;28;20052;-82
2023/10/24 05:37:31;;;;;;;9.88;8.95;;;;;;;;;;5056271;28;20494;-82
2023/10/24 05:40:01;;;;;;;12.10;9.05;;;;;;;;;;5046975;28;20048;-82
2023/10/24 05:42:30;;;;;;;9.10;8.20;;;;;;;;;;5047639;28;20048;-82
2023/10/24 05:44:58;;;;;;;8.57;7.70;;;;;;;;;;5050725;28;20053;-82
2023/10/24 05:47:25;;;;;;;8.45;7.65;;;;;;;;;;5050822;28;20526;-82
2023/10/24 05:49:54;;;;;;;8.90;7.93;;;;;;;;;;5047598;28;20418;-81
2023/10/24 05:52:22;;;;;;;10.25;7.45;;;;;;;;;;5052674;28;20040;-83
2023/10/24 05:54:50;;;;;;;9.18;7.43;;;;;;;;;;5053884;28;20045;-83
2023/10/24 05:57:20;;;;;;;8.90;7.80;;;;;;;;;;5037830;28;20056;-83
2023/10/24 05:59:49;;;;;;;8.60;7.75;;;;;;;;;;5055304;28;20055;-83
2023/10/24 06:02:16;;;;;;;9.55;8.20;;;;;;;;;;5046525;28;20044;-83
2023/10/24 06:04:44;;;;;;;12.15;8.25;;;;;;;;;;5041349;28;20056;-83
2023/10/24 06:07:14;;;;;;;8.45;7.18;;;;;;;;;;5068314;28;20055;-83
2023/10/24 06:09:41;;;;;;;9.68;7.45;;;;;;;;;;5049527;28;20052;-83
2023/10/24 06:12:10;;;;;;;8.18;7.38;;;;;;;;;;5030015;28;20409;-83
2023/10/24 06:14:37;;;;;;;8.05;7.25;;;;;;;;;;5057446;28;20067;-83
2023/10/24 06:17:04;;;;;;;8.77;7.15;;;;;;;;;;5064820;28;20051;-83
2023/10/24 06:19:39;;;;;;;7.25;6.55;;;;;;;;;;5040994;28;20494;-83
2023/10/24 06:22:11;;;;;;;12.40;7.82;;;;;;;;;;5054477;28;20383;-83
2023/10/24 06:24:43;;;;;;;7.97;7.25;;;;;;;;;;5051976;28;20057;-83
2023/10/24 06:27:13;;;;;;;9.02;8.13;;;;;;;;;;5050649;28;20052;-83
2023/10/24 06:29:43;;;;;;;10.93;8.55;;;;;;;;;;5047523;28;20434;-83
2023/10/24 06:32:12;;;;;;;8.98;8.18;;;;;;;;;;5041585;28;20395;-84
2023/10/24 06:34:42;;;;;;;9.13;7.47;;;;;;;;;;5034176;28;20059;-83
2023/10/24 06:37:11;;;;;;;7.40;6.70;;;;;;;;;;5041795;28;20053;-83
2023/10/24 06:39:41;;;;;;;10.73;8.45;;;;;;;;;;5049976;28;20079;-84
2023/10/24 06:42:08;;;;;;;8.80;8.00;;;;;;;;;;5045579;28;20052;-84
2023/10/24 06:44:38;;;;;;;10.23;9.23;;;;;;;;;;5038441;28;20048;-83
2023/10/24 06:47:07;;;;;;;10.35;9.30;;;;;;;;;;5050013;28;20060;-83
2023/10/24 06:49:35;;;;;;;12.43;9.82;;;;;;;;;;5032387;28;20052;-83
2023/10/24 06:52:02;;;;;;;11.35;10.15;;;;;;;;;;5031908;28;20045;-83
2023/10/24 06:54:29;;;;;;;10.02;9.02;;;;;;;;;;5046929;28;20049;-83
2023/10/24 06:56:59;;;;;;;9.75;8.80;;;;;;;;;;5042275;28;20053;-84
2023/10/24 06:59:29;;;;;;;10.50;9.50;;;;;;;;;;5043446;28;20513;-83
2023/10/24 07:02:01;;;;;;;12.25;10.95;;;;;;;;;;5041978;28;20064;-83
2023/10/24 07:04:30;;;;;;;11.98;10.55;;;;;;;;;;5024810;28;20050;-83
2023/10/24 07:06:58;;;;;;;11.60;10.40;;;;;;;;;;5050792;28;20495;-83
2023/10/24 07:09:27;;;;;;;10.32;9.27;;;;;;;;;;5035693;28;20057;-83
2023/10/24 07:11:55;;;;;;;10.68;9.52;;;;;;;;;;5042784;28;20064;-83
2023/10/24 07:15:03;;;;;;;;;;;;;;;;;;;;;
2023/10/24 07:18:24;;;;;;;10.80;9.80;;;;;;;;;;5049040;28;20056;-81
2023/10/24 07:21:38;;;;;;;;;;;;;;;;;;;;;
2023/10/24 07:24:52;;;;;;;11.63;9.70;;;;;;;;;;4990079;28;20065;-80
2023/10/24 07:27:33;;;;;;;10.73;9.65;;;;;;;;;;5024321;28;20049;-83
2023/10/24 07:30:00;;;;;;;11.02;9.20;;;;;;;;;;5049252;28;20491;-83
2023/10/24 07:32:27;;;;;;;10.10;9.18;;;;;;;;;;5047044;28;20052;-83
2023/10/24 07:34:56;;;;;;;10.80;9.05;;;;;;;;;;5048833;28;20053;-83
2023/10/24 07:37:23;;;;;;;10.52;9.13;;;;;;;;;;5021557;28;20057;-83
2023/10/24 07:39:52;;;;;;;10.88;9.77;;;;;;;;;;5041321;28;20045;-83
2023/10/24 07:42:19;;;;;;;13.60;10.80;;;;;;;;;;5039117;28;20060;-83
2023/10/24 07:44:47;;;;;;;8.65;7.70;;;;;;;;;;5044960;28;20060;-83
2023/10/24 07:47:14;;;;;;;9.50;8.65;;;;;;;;;;5046616;28;20056;-83
2023/10/24 07:49:41;;;;;;;10.80;8.48;;;;;;;;;;5028722;28;20049;-83
2023/10/24 07:52:09;;;;;;;10.75;9.07;;;;;;;;;;5044187;28;20071;-83
2023/10/24 07:54:36;;;;;;;9.60;8.65;;;;;;;;;;5048244;28;20037;-83
2023/10/24 07:57:05;;;;;;;9.82;9.00;;;;;;;;;;5064401;28;20060;-83
2023/10/24 07:59:34;;;;;;;13.48;8.68;;;;;;;;;;5045245;28;20045;-83
2023/10/24 08:02:01;;;;;;;11.07;9.27;;;;;;;;;;5042604;28;20045;-83
2023/10/24 08:04:28;;;;;;;10.70;9.60;;;;;;;;;;5043516;28;20060;-83
2023/10/24 08:06:56;;;;;;;8.65;7.82;;;;;;;;;;5046567;28;20061;-83
2023/10/24 08:09:23;;;;;;;9.48;8.48;;;;;;;;;;5033388;28;20052;-83
2023/10/24 08:11:51;;;;;;;10.88;7.72;;;;;;;;;;5050929;28;20045;-83
2023/10/24 08:14:19;;;;;;;8.73;7.88;;;;;;;;;;5033780;28;20052;-83
2023/10/24 08:16:47;;;;;;;10.30;8.40;;;;;;;;;;5061259;28;20053;-83
2023/10/24 08:19:14;;;;;;;8.35;7.47;;;;;;;;;;5047049;28;20052;-83
2023/10/24 08:21:41;;;;;;;9.45;8.45;;;;;;;;;;5031129;28;20060;-83
2023/10/24 08:24:09;;;;;;;12.85;9.18;;;;;;;;;;5028988;28;20045;-83
2023/10/24 08:26:36;;;;;;;10.07;9.07;;;;;;;;;;5065685;28;20049;-84
2023/10/24 08:29:04;;;;;;;9.55;8.45;;;;;;;;;;5053954;28;20056;-83
2023/10/24 08:31:32;;;;;;;11.68;8.75;;;;;;;;;;5051319;28;20387;-84
2023/10/24 08:34:01;;;;;;;9.65;8.05;;;;;;;;;;5034326;28;20052;-84
2023/10/24 08:36:29;;;;;;;8.90;8.00;;;;;;;;;;5033252;28;20052;-83
2023/10/24 08:38:56;;;;;;;9.05;8.25;;;;;;;;;;5050002;28;20055;-84
2023/10/24 08:41:23;;;;;;;9.70;8.52;;;;;;;;;;5067717;28;20053;-84
2023/10/24 08:43:51;;;;;;;10.55;9.45;;;;;;;;;;5051539;28;20056;-83
2023/10/24 08:46:18;;;;;;;9.73;8.73;;;;;;;;;;5030989;28;20056;-84
2023/10/24 08:49:05;;;;;;;9.38;8.48;;;;;;;;;;5048252;28;20144;-84
2023/10/24 08:51:34;;;;;;;10.40;9.02;;;;;;;;;;5047195;28;20502;-84
2023/10/24 08:54:01;;;;;;;8.80;7.90;;;;;;;;;;5031481;28;20506;-84
2023/10/24 08:56:29;;;;;;;9.65;8.43;;;;;;;;;;5028866;28;20410;-84
2023/10/24 08:58:57;;;;;;;11.68;8.82;;;;;;;;;;5054015;28;20060;-84
2023/10/24 09:01:25;;;;;;;11.02;9.90;;;;;;;;;;5039544;28;20506;-84
2023/10/24 09:03:52;;;;;;;9.10;8.20;;;;;;;;;;5041373;28;20041;-84
2023/10/24 09:06:22;;;;;;;10.10;8.98;;;;;;;;;;5039850;28;20056;-84
2023/10/24 09:08:50;;;;;;;8.32;7.57;;;;;;;;;;5067315;28;20052;-84
2023/10/24 09:11:18;;;;;;;9.05;8.15;;;;;;;;;;5042909;28;20045;-84
2023/10/24 09:13:45;;;;;;;9.23;8.35;;;;;;;;;;5033190;28;20070;-84
2023/10/24 09:16:12;;;;;;;8.02;7.03;;;;;;;;;;5045521;28;20037;-84
2023/10/24 09:18:41;;;;;;;9.40;8.45;;;;;;;;;;5043217;28;20041;-84
2023/10/24 09:21:09;;;;;;;10.07;7.60;;;;;;;;;;5041378;28;20049;-84
2023/10/24 09:23:39;;;;;;;10.27;7.57;;;;;;;;;;5043055;28;20045;-85
2023/10/24 09:26:11;;;;;;;8.93;8.02;;;;;;;;;;5040919;28;20072;-84
2023/10/24 09:28:40;;;;;;;7.25;6.07;;;;;;;;;;5026658;28;20064;-84
2023/10/24 09:31:11;;;;;;;8.40;7.60;;;;;;;;;;5031145;28;20045;-83
2023/10/24 09:33:39;;;;;;;8.05;7.28;;;;;;;;;;5039960;28;20071;-84
2023/10/24 09:36:07;;;;;;;7.47;6.45;;;;;;;;;;5025739;28;20060;-84
2023/10/24 09:38:41;;;;;;;7.57;6.88;;;;;;;;;;5038768;28;20053;-84
2023/10/24 09:41:11;;;;;;;8.73;7.93;;;;;;;;;;5025402;28;20056;-84
2023/10/24 09:43:40;;;;;;;7.43;6.72;;;;;;;;;;5022819;28;20045;-85
2023/10/24 09:46:08;;;;;;;6.85;6.15;;;;;;;;;;5026055;28;20410;-85
2023/10/24 09:48:39;;;;;;;7.50;6.45;;;;;;;;;;5038871;28;20048;-85
2023/10/24 09:51:08;;;;;;;6.75;5.97;;;;;;;;;;5049369;28;20411;-85
2023/10/24 09:53:36;;;;;;;6.53;5.93;;;;;;;;;;5047471;28;20426;-84
2023/10/24 09:56:05;;;;;;;6.18;5.57;;;;;;;;;;5036594;28;20400;-84
2023/10/24 09:58:41;;;;;;;9.95;8.25;;;;;;;;;;5031054;28;20057;-84
2023/10/24 10:01:09;;;;;;;8.70;7.88;;;;;;;;;;5048991;28;20060;-84
2023/10/24 10:03:39;;;;;;;9.77;8.88;;;;;;;;;;5043997;28;20048;-84
2023/10/24 10:06:08;;;;;;;11.25;10.05;;;;;;;;;;5027733;28;20553;-84
2023/10/24 10:08:43;;;;;;;11.43;10.23;;;;;;;;;;5048444;28;20517;-84
2023/10/24 10:11:12;;;;;;;10.13;9.05;;;;;;;;;;5049793;28;20060;-84
2023/10/24 10:13:52;;;;;;;10.68;9.40;;;;;;;;;;5048086;28;20049;-84
2023/10/24 10:16:44;;;;;;;10.38;9.30;;;;;;;;;;5049547;28;20045;-85
2023/10/24 10:19:33;;;;;;;8.20;7.45;;;;;;;;;;5045096;28;20048;-84
2023/10/24 10:22:18;;;;;;;9.10;8.32;;;;;;;;;;5042866;28;20052;-84
2023/10/24 10:25:03;;;;;;;9.10;8.30;;;;;;;;;;5031946;28;20068;-84
2023/10/24 10:27:37;;;;;;;10.90;8.88;;;;;;;;;;5032037;28;20063;-84
2023/10/24 10:30:14;;;;;;;11.88;10.27;;;;;;;;;;5043518;28;20049;-84
2023/10/24 10:32:47;;;;;;;10.45;9.50;;;;;;;;;;5030782;28;20053;-84
2023/10/24 10:35:15;;;;;;;11.73;10.65;;;;;;;;;;5027506;28;20506;-84
2023/10/24 10:38:01;;;;;;;7.90;7.20;;;;;;;;;;5040358;28;20060;-84
2023/10/24 10:40:28;;;;;;;7.68;6.97;;;;;;;;;;5023632;28;20049;-84
2023/10/24 10:42:56;;;;;;;9.40;7.45;;;;;;;;;;5046986;28;20060;-84
2023/10/24 10:45:26;;;;;;;7.75;7.00;;;;;;;;;;5032638;28;20048;-84
2023/10/24 10:47:54;;;;;;;7.55;6.82;;;;;;;;;;5028115;28;20045;-84
2023/10/24 10:50:25;;;;;;;11.20;10.00;;;;;;;;;;5047239;28;20052;-84
2023/10/24 10:52:57;;;;;;;12.18;11.00;;;;;;;;;;5031530;28;20364;-84
2023/10/24 10:55:32;;;;;;;8.57;7.68;;;;;;;;;;5049063;28;20049;-84
2023/10/24 10:58:05;;;;;;;11.00;10.00;;;;;;;;;;5044809;28;20048;-85
2023/10/24 11:00:45;;;;;;;5.88;5.38;;;;;;;;;;5043603;28;20045;-84
2023/10/24 11:03:29;;;;;;;6.15;4.82;;;;;;;;;;5049468;28;20060;-84
2023/10/24 11:05:56;;;;;;;4.88;4.47;;;;;;;;;;5037790;28;20517;-84
2023/10/24 11:08:32;;;;;;;6.95;6.13;;;;;;;;;;5044019;28;20049;-84
2023/10/24 11:11:18;;;;;;;6.40;5.75;;;;;;;;;;5042020;28;20052;-85
2023/10/24 11:13:56;;;;;;;6.78;6.18;;;;;;;;;;5049153;28;20422;-84
2023/10/24 11:16:53;;;;;;;5.63;5.13;;;;;;;;;;5046010;28;20045;-84
2023/10/24 11:19:40;;;;;;;5.82;5.32;;;;;;;;;;4998038;28;20438;-84
2023/10/24 11:22:09;;;;;;;6.45;5.65;;;;;;;;;;5015039;28;20502;-84
2023/10/24 11:24:55;;;;;;;6.03;5.53;;;;;;;;;;5021518;28;20048;-84
2023/10/24 11:27:25;;;;;;;9.23;7.20;;;;;;;;;;5030812;28;20388;-84
2023/10/24 11:29:54;;;;;;;6.85;6.20;;;;;;;;;;5035061;28;20061;-84
2023/10/24 11:32:33;;;;;;;7.53;6.25;;;;;;;;;;5047330;28;20053;-84
2023/10/24 11:35:03;;;;;;;8.32;5.45;;;;;;;;;;5048852;28;20048;-84
2023/10/24 11:37:35;;;;;;;6.22;5.72;;;;;;;;;;5038546;28;20048;-84
2023/10/24 11:40:06;;;;;;;5.47;4.78;;;;;;;;;;5046928;28;20048;-84
2023/10/24 11:42:39;;;;;;;5.45;4.95;;;;;;;;;;5046041;28;20061;-84
2023/10/24 11:45:08;;;;;;;6.03;5.47;;;;;;;;;;5053807;28;20433;-84
2023/10/24 11:47:39;;;;;;;5.80;5.20;;;;;;;;;;5028087;28;20060;-84
2023/10/24 11:50:07;;;;;;;5.10;4.50;;;;;;;;;;5035772;28;20046;-84
2023/10/24 11:52:34;;;;;;;6.03;4.80;;;;;;;;;;5028346;28;20091;-84
2023/10/24 11:55:02;;;;;;;5.45;4.95;;;;;;;;;;5038946;28;20082;-84
2023/10/24 11:57:29;;;;;;;5.43;4.88;;;;;;;;;;5035283;28;20045;-84
2023/10/24 11:59:57;;;;;;;5.30;4.70;;;;;;;;;;5040465;28;20057;-84
2023/10/24 12:02:24;;;;;;;3.55;3.03;;;;;;;;;;5049402;28;20040;-84
2023/10/24 12:04:53;;;;;;;4.63;4.18;;;;;;;;;;5048403;28;20509;-84
2023/10/24 12:07:20;;;;;;;4.50;4.10;;;;;;;;;;5032826;28;20044;-84
2023/10/24 12:09:47;;;;;;;5.10;4.70;;;;;;;;;;5046129;28;20045;-84
2023/10/24 12:12:15;;;;;;;7.22;6.47;;;;;;;;;;5047271;28;20048;-84
2023/10/24 12:14:43;;;;;;;7.15;6.45;;;;;;;;;;5028465;28;20054;-84
2023/10/24 12:17:12;;;;;;;7.88;7.18;;;;;;;;;;5047777;28;20058;-84
2023/10/24 12:19:39;;;;;;;7.80;7.03;;;;;;;;;;5041305;28;20502;-84
2023/10/24 12:22:08;;;;;;;6.22;5.53;;;;;;;;;;5032429;28;20053;-84
2023/10/24 12:24:35;;;;;;;5.22;4.72;;;;;;;;;;5024018;28;20052;-84
2023/10/24 12:27:03;;;;;;;6.25;5.65;;;;;;;;;;5025874;28;20048;-84
2023/10/24 12:29:32;;;;;;;5.05;4.35;;;;;;;;;;5051161;28;20450;-84
2023/10/24 12:31:59;;;;;;;8.15;5.97;;;;;;;;;;5041807;28;20041;-84
2023/10/24 12:34:28;;;;;;;6.70;6.10;;;;;;;;;;5048957;28;20048;-84
2023/10/24 12:37:02;;;;;;;6.15;5.55;;;;;;;;;;5033735;28;20045;-84
2023/10/24 12:39:30;;;;;;;7.15;5.32;;;;;;;;;;5016632;28;20054;-84
2023/10/24 12:41:58;;;;;;;5.40;4.90;;;;;;;;;;5032866;28;20530;-85
2023/10/24 12:44:27;;;;;;;6.43;5.50;;;;;;;;;;5039591;28;20521;-85
2023/10/24 12:46:55;;;;;;;4.85;4.45;;;;;;;;;;5027242;28;20411;-85
2023/10/24 12:49:22;;;;;;;5.32;4.28;;;;;;;;;;5048183;28;20056;-85
2023/10/24 12:51:52;;;;;;;3.65;3.35;;;;;;;;;;5049204;28;20147;-85
2023/10/24 12:54:19;;;;;;;3.95;3.55;;;;;;;;;;5021678;28;20056;-85
2023/10/24 12:56:49;;;;;;;4.35;3.95;;;;;;;;;;5028745;28;20037;-85
2023/10/24 12:59:17;;;;;;;4.03;3.63;;;;;;;;;;5023363;28;20443;-85
2023/10/24 13:01:44;;;;;;;5.05;3.78;;;;;;;;;;5039095;28;20060;-85
2023/10/24 13:04:12;;;;;;;4.15;3.38;;;;;;;;;;5041888;28;20048;-84
2023/10/24 13:06:40;;;;;;;5.28;3.75;;;;;;;;;;5047173;28;20467;-84
2023/10/24 13:09:08;;;;;;;5.82;5.22;;;;;;;;;;5042218;28;20053;-84
2023/10/24 13:11:37;;;;;;;6.28;5.57;;;;;;;;;;5015882;28;20064;-84
2023/10/24 13:14:38;;;;;;;6.68;6.05;;;;;;;;;;5021182;28;20049;-82
2023/10/24 13:17:33;;;;;;;;;;;;;;;;;;;;;
2023/10/24 13:24:12;;;;;;;6.10;5.50;;;;;;;;;;4981265;28;20059;-82
2023/10/24 13:27:00;;;;;;;5.85;5.32;;;;;;;;;;4965217;28;20062;-82
2023/10/24 13:30:21;;;;;;;6.20;5.57;;;;;;;;;;5006476;28;20058;-82
2023/10/24 13:33:23;;;;;;;;;;;;;;;;;;;;;
2023/10/24 13:36:47;;;;;;;;;;;;;;;;;;;;;
2023/10/24 13:39:39;;;;;;;6.20;5.55;;;;;;;;;;4881654;29;20059;-82
2023/10/24 13:42:08;;;;;;;6.55;5.90;;;;;;;;;;5007825;28;20069;-82
2023/10/24 13:44:35;;;;;;;6.57;5.85;;;;;;;;;;4997760;28;20057;-82
2023/10/24 13:47:03;;;;;;;5.78;5.18;;;;;;;;;;5039747;28;20060;-84
2023/10/24 13:49:34;;;;;;;6.55;5.95;;;;;;;;;;5026266;28;20048;-84
2023/10/24 13:52:02;;;;;;;5.50;5.00;;;;;;;;;;5035888;28;20411;-84
2023/10/24 13:54:29;;;;;;;6.78;5.72;;;;;;;;;;5031369;28;20064;-84
2023/10/24 13:56:56;;;;;;;5.50;4.95;;;;;;;;;;5047931;28;20061;-84
2023/10/24 13:59:24;;;;;;;5.25;4.68;;;;;;;;;;5042388;28;20060;-84
2023/10/24 14:02:00;;;;;;;6.93;5.40;;;;;;;;;;5020856;28;20057;-84
2023/10/24 14:05:08;;;;;;;;;;;;;;;;;;;;;
2023/10/24 14:08:12;;;;;;;;;;;;;;;;;;;;;
2023/10/24 14:11:49;;;;;;;6.25;4.88;;;;;;;;;;5039984;28;20052;-84
2023/10/24 14:14:48;;;;;;;;;;;;;;;;;;;;;
2023/10/24 14:18:02;;;;;;;5.45;4.95;;;;;;;;;;5027649;28;20045;-84
2023/10/24 14:21:14;;;;;;;;;;;;;;;;;;;;;
2023/10/24 14:24:33;;;;;;;4.15;3.75;;;;;;;;;;4998778;28;20060;-84
2023/10/24 14:27:49;;;;;;;;;;;;;;;;;;;;;
2023/10/24 14:30:39;;;;;;;4.95;4.45;;;;;;;;;;4996271;28;20060;-83
2023/10/24 14:34:01;;;;;;;;;;;;;;;;;;;;;
2023/10/24 14:37:27;;;;;;;;;;;;;;;;;;;;;
2023/10/24 14:40:32;;;;;;;;;;;;;;;;;;;;;
2023/10/24 14:44:05;;;;;;;;;;;;;;;;;;;;;
2023/10/24 14:47:46;;;;;;;;;;;;;;;;;;;;;
2023/10/24 14:50:45;;;;;;;4.53;4.10;;;;;;;;;;5041057;28;20525;-83
2023/10/24 14:54:22;;;;;;;3.75;3.45;;;;;;;;;;5036366;28;20052;-84
2023/10/24 15:01:08;;;;;;;;;;;;;;;;;;;;;
2023/10/24 15:04:40;;;;;;;;;;;;;;;;;;;;;
2023/10/24 15:12:03;;;;;;;;;;;;;;;;;;;;;
2023/10/24 15:15:08;;;;;;;11.70;8.88;;;;;;;;;;4801039;29;20418;-83
2023/10/24 15:23:01;;;;;;;;;;;;;;;;;;;;;
2023/10/24 15:30:23;;;;;;;5.40;4.38;;;;;;;;;;4740816;29;20415;-84
2023/10/24 15:32:57;;;;;;;6.22;5.72;;;;;;;;;;4869241;29;20427;-83
2023/10/24 15:35:56;;;;;;;;;;;;;;;;;;;;;
2023/10/24 15:38:57;;;;;;;5.65;5.15;;;;;;;;;;4958342;28;20497;-84
2023/10/24 15:42:02;;;;;;;5.47;4.97;;;;;;;;;;4991517;28;20057;-83
2023/10/24 15:44:56;;;;;;;;;;;;;;;;;;;;;
2023/10/24 15:47:36;;;;;;;8.48;7.78;;;;;;;;;;4977094;28;20065;-83
2023/10/24 15:51:01;;;;;;;;;;;;;;;;;;;;;
2023/10/24 15:53:38;;;;;;;13.82;11.73;;;;;;;;;;5031688;28;20061;-83
2023/10/24 15:56:06;;;;;;;8.88;7.85;;;;;;;;;;5040451;28;20057;-85
2023/10/24 15:58:34;;;;;;;9.18;8.38;;;;;;;;;;5043208;28;20060;-84
2023/10/24 16:01:11;;;;;;;9.43;8.55;;;;;;;;;;5030849;28;20400;-84
2023/10/24 16:03:40;;;;;;;8.48;7.78;;;;;;;;;;5040597;28;20042;-85